Time;durP1;ratioP1;P1;durP2;ratioP2;P2;SDS_P1;SDS_P2;PMS_P1;PMS_P2;Temp;Humidity;BMP_temperature;BMP_pressure;BME280_temperature;BME280_humidity;BME280_pressure;Samples;Min_cycle;Max_cycle;Signal;HPM_P1;HPM_P2
2021/08/24 00:00:38;;;;;;;1999.90;999.90;;;16.60;99.90;;;;;;5019996;28;20215;-68
2021/08/24 00:03:03;;;;;;;1999.90;999.90;;;16.60;99.90;;;;;;5014874;28;20226;-68
2021/08/24 00:05:32;;;;;;;1999.90;999.90;;;16.60;99.90;;;;;;5015608;28;20177;-68
2021/08/24 00:07:58;;;;;;;1999.90;999.90;;;16.50;99.90;;;;;;5024282;28;20235;-68
2021/08/24 00:10:30;;;;;;;1999.90;999.90;;;16.50;99.90;;;;;;5021582;28;20419;-68
2021/08/24 00:12:55;;;;;;;1999.90;999.90;;;16.50;99.90;;;;;;5014609;28;20180;-68
2021/08/24 00:15:21;;;;;;;1999.90;999.90;;;16.50;99.90;;;;;;5015686;28;20421;-68
2021/08/24 00:17:47;;;;;;;1999.90;999.90;;;16.40;99.90;;;;;;5012881;28;20290;-68
2021/08/24 00:20:13;;;;;;;1999.90;999.90;;;16.40;99.90;;;;;;5009711;28;20411;-68
2021/08/24 00:22:40;;;;;;;1999.90;999.90;;;16.40;99.90;;;;;;5014707;28;20177;-68
2021/08/24 00:25:09;;;;;;;1999.90;999.90;;;16.30;99.90;;;;;;5014143;28;20505;-68
2021/08/24 00:27:34;;;;;;;1999.90;999.90;;;16.30;99.90;;;;;;5022477;28;20461;-68
2021/08/24 00:30:00;;;;;;;1999.90;999.90;;;16.30;99.90;;;;;;5018185;28;20419;-68
2021/08/24 00:32:28;;;;;;;1999.90;999.90;;;16.30;99.90;;;;;;5017253;28;20287;-68
2021/08/24 00:34:53;;;;;;;1999.90;999.90;;;16.20;99.90;;;;;;5015335;28;20220;-68
2021/08/24 00:37:21;;;;;;;1999.90;999.90;;;16.10;99.90;;;;;;5021855;28;20947;-68
2021/08/24 00:39:47;;;;;;;1999.90;999.90;;;16.10;99.90;;;;;;5018849;28;20179;-68
2021/08/24 00:42:17;;;;;;;1999.90;999.90;;;16.10;99.90;;;;;;5017534;28;20425;-68
2021/08/24 00:44:44;;;;;;;1999.90;999.90;;;16.10;99.90;;;;;;5015078;28;20430;-68
2021/08/24 00:47:13;;;;;;;1999.90;999.90;;;16.00;99.90;;;;;;5020193;28;20484;-68
2021/08/24 00:49:38;;;;;;;1999.90;999.90;;;16.00;99.90;;;;;;5019617;28;20458;-68
2021/08/24 00:52:14;;;;;;;1999.90;999.90;;;16.00;99.90;;;;;;5017310;28;20458;-68
2021/08/24 00:54:42;;;;;;;1999.90;999.90;;;15.90;99.90;;;;;;5014957;28;20603;-68
2021/08/24 00:57:12;;;;;;;1999.90;999.90;;;15.90;99.90;;;;;;5019850;28;20446;-68
2021/08/24 00:59:38;;;;;;;1999.90;999.90;;;15.80;99.90;;;;;;5019625;28;20452;-68
2021/08/24 01:02:09;;;;;;;1999.90;999.90;;;15.80;99.90;;;;;;5017035;28;20451;-68
2021/08/24 01:04:36;;;;;;;1999.90;999.90;;;15.80;99.90;;;;;;5014537;28;20433;-67
2021/08/24 01:07:35;;;;;;;1999.90;999.90;;;15.70;99.90;;;;;;5019618;28;20489;-68
2021/08/24 01:10:07;;;;;;;1999.90;999.90;;;15.70;99.90;;;;;;5017446;28;20450;-68
2021/08/24 01:12:43;;;;;;;1999.90;999.90;;;15.60;99.90;;;;;;5015724;28;20406;-68
2021/08/24 01:15:48;;;;;;;1999.90;999.90;;;15.60;99.90;;;;;;5014652;28;21011;-68
2021/08/24 01:18:33;;;;;;;1999.90;999.90;;;15.50;99.90;;;;;;5024839;28;20986;-67
2021/08/24 01:21:32;;;;;;;1999.90;999.90;;;15.50;99.90;;;;;;5010105;28;20411;-67
2021/08/24 01:24:30;;;;;;;1999.90;999.90;;;15.40;99.90;;;;;;5006439;28;20447;-68
2021/08/24 01:27:10;;;;;;;1999.90;999.90;;;15.40;99.90;;;;;;4977188;28;20481;-68
2021/08/24 01:30:00;;;;;;;1999.90;999.90;;;15.40;99.90;;;;;;5023463;28;20412;-68
2021/08/24 01:33:03;;;;;;;1999.90;999.90;;;15.30;99.90;;;;;;5014727;28;20441;-68
2021/08/24 01:36:06;;;;;;;1999.90;999.90;;;15.30;99.90;;;;;;5017704;28;20422;-68
2021/08/24 01:38:40;;;;;;;1999.90;999.90;;;15.30;99.90;;;;;;5010304;28;20415;-68
2021/08/24 01:41:20;;;;;;;1999.90;999.90;;;15.30;99.90;;;;;;5020473;28;20411;-68
2021/08/24 01:44:06;;;;;;;1999.90;999.90;;;15.20;99.90;;;;;;5014544;28;20389;-68
2021/08/24 01:46:41;;;;;;;1999.90;999.90;;;15.20;99.90;;;;;;5017674;28;20467;-68
2021/08/24 01:49:07;;;;;;;1999.90;999.90;;;15.20;99.90;;;;;;5022737;28;20411;-68
2021/08/24 01:51:44;;;;;;;1999.90;999.90;;;15.10;99.90;;;;;;5016463;28;20473;-68
2021/08/24 01:54:33;;;;;;;1999.90;999.90;;;15.20;99.90;;;;;;5012525;28;20964;-68
2021/08/24 01:57:00;;;;;;;1999.90;999.90;;;15.10;99.90;;;;;;5011758;28;20437;-68
2021/08/24 01:59:41;;;;;;;1999.90;999.90;;;15.10;99.90;;;;;;5020118;28;20410;-68
2021/08/24 02:02:15;;;;;;;1999.90;999.90;;;15.10;99.90;;;;;;5016162;28;20402;-68
2021/08/24 02:04:47;;;;;;;1999.90;999.90;;;15.10;99.90;;;;;;5013627;28;20937;-68
2021/08/24 02:07:15;;;;;;;1999.90;999.90;;;15.10;99.90;;;;;;5019256;28;20440;-68
2021/08/24 02:09:44;;;;;;;1999.90;999.90;;;15.10;99.90;;;;;;5018013;28;20419;-68
2021/08/24 02:12:12;;;;;;;1999.90;999.90;;;15.00;99.90;;;;;;5015914;28;20415;-68
2021/08/24 02:14:40;;;;;;;1999.90;999.90;;;15.00;99.90;;;;;;5013187;28;20478;-68
2021/08/24 02:17:08;;;;;;;1999.90;999.90;;;15.10;99.90;;;;;;5018803;28;20811;-68
2021/08/24 02:19:41;;;;;;;1999.90;999.90;;;15.10;99.90;;;;;;5018928;28;20423;-68
2021/08/24 02:22:29;;;;;;;1999.90;999.90;;;15.10;99.90;;;;;;5016057;28;20407;-68
2021/08/24 02:25:09;;;;;;;1999.90;999.90;;;15.00;99.90;;;;;;4999751;28;20455;-68
2021/08/24 02:27:39;;;;;;;1999.90;999.90;;;15.00;99.90;;;;;;5020155;28;20833;-68
2021/08/24 02:30:06;;;;;;;1999.90;999.90;;;15.00;99.90;;;;;;5017800;28;20426;-68
2021/08/24 02:32:34;;;;;;;1999.90;999.90;;;15.00;99.90;;;;;;5014565;28;20472;-68
2021/08/24 02:35:19;;;;;;;1999.90;999.90;;;15.00;99.90;;;;;;5013035;28;20456;-68
2021/08/24 02:38:11;;;;;;;1999.90;999.90;;;15.00;99.90;;;;;;5020163;28;20446;-68
2021/08/24 02:40:45;;;;;;;1999.90;999.90;;;14.90;99.90;;;;;;5005713;28;20438;-68
2021/08/24 02:43:29;;;;;;;1999.90;999.90;;;15.00;99.90;;;;;;5012225;28;20402;-68
2021/08/24 02:46:11;;;;;;;1999.90;999.90;;;14.90;99.90;;;;;;5013000;28;20449;-68
2021/08/24 02:48:40;;;;;;;1999.90;999.90;;;15.00;99.90;;;;;;5022754;28;20438;-68
2021/08/24 02:51:07;;;;;;;1999.90;999.90;;;15.10;99.90;;;;;;5015584;28;20497;-68
2021/08/24 02:53:36;;;;;;;1999.90;999.90;;;15.10;99.90;;;;;;5013873;28;20861;-68
2021/08/24 02:56:02;;;;;;;1999.90;999.90;;;15.20;99.90;;;;;;5017850;28;20501;-68
2021/08/24 02:58:27;;;;;;;1999.90;999.90;;;15.20;99.90;;;;;;5028148;28;20464;-68
2021/08/24 03:00:53;;;;;;;1999.90;999.90;;;15.30;99.90;;;;;;5019687;28;20176;-68
2021/08/24 03:03:18;;;;;;;1999.90;999.90;;;15.30;99.90;;;;;;5016302;28;20181;-68
2021/08/24 03:05:45;;;;;;;1999.90;999.90;;;15.40;99.90;;;;;;5016034;28;20194;-68
2021/08/24 03:08:12;;;;;;;1999.90;999.90;;;15.40;99.90;;;;;;5027224;28;20212;-68
2021/08/24 03:10:41;;;;;;;1999.90;999.90;;;15.40;99.90;;;;;;5020523;28;20442;-68
2021/08/24 03:13:21;;;;;;;1999.90;999.90;;;15.40;99.90;;;;;;5015710;28;20420;-68
2021/08/24 03:16:01;;;;;;;1999.90;999.90;;;15.40;99.90;;;;;;5015780;28;20412;-68
2021/08/24 03:18:49;;;;;;;1999.90;999.90;;;15.40;99.90;;;;;;5024980;28;20418;-68
2021/08/24 03:21:20;;;;;;;1999.90;999.90;;;15.40;99.90;;;;;;5018840;28;20427;-69
2021/08/24 03:23:46;;;;;;;1999.90;999.90;;;15.40;99.90;;;;;;5015602;28;20435;-68
2021/08/24 03:26:18;;;;;;;1999.90;999.90;;;15.40;99.90;;;;;;5018884;28;20454;-68
2021/08/24 03:28:43;;;;;;;1999.90;999.90;;;15.50;99.90;;;;;;5024556;28;20522;-68
2021/08/24 03:31:13;;;;;;;1999.90;999.90;;;15.40;99.90;;;;;;5018866;28;20447;-68
2021/08/24 03:33:39;;;;;;;1999.90;999.90;;;15.40;99.90;;;;;;5015342;28;20207;-68
2021/08/24 03:36:04;;;;;;;1999.90;999.90;;;15.30;99.90;;;;;;5017443;28;20447;-68
2021/08/24 03:38:30;;;;;;;1999.90;999.90;;;15.30;99.90;;;;;;5026327;28;20175;-68
2021/08/24 03:40:56;;;;;;;1999.90;999.90;;;15.30;99.90;;;;;;5018673;28;20213;-68
2021/08/24 03:43:21;;;;;;;1999.90;999.90;;;15.30;99.90;;;;;;5015309;28;20183;-68
2021/08/24 03:45:47;;;;;;;1999.90;999.90;;;15.30;99.90;;;;;;5015308;28;20657;-68
2021/08/24 03:48:12;;;;;;;1999.90;999.90;;;15.30;99.90;;;;;;5027831;28;20184;-68
2021/08/24 03:50:38;;;;;;;1999.90;999.90;;;15.30;99.90;;;;;;5019798;28;20638;-68
2021/08/24 03:53:03;;;;;;;1999.90;999.90;;;15.20;99.90;;;;;;5015033;28;20214;-68
2021/08/24 03:55:29;;;;;;;1999.90;999.90;;;15.20;99.90;;;;;;5015855;28;20608;-68
2021/08/24 03:57:55;;;;;;;1999.90;999.90;;;15.20;99.90;;;;;;5023441;28;20184;-68
2021/08/24 04:00:20;;;;;;;1999.90;999.90;;;15.10;99.90;;;;;;5021542;28;20187;-68
2021/08/24 04:02:46;;;;;;;1999.90;999.90;;;15.10;99.90;;;;;;5015276;28;20182;-68
2021/08/24 04:05:11;;;;;;;1999.90;999.90;;;15.00;99.90;;;;;;5015599;28;20185;-68
2021/08/24 04:07:38;;;;;;;1999.90;999.90;;;15.00;99.90;;;;;;5023498;28;20749;-68
2021/08/24 04:10:06;;;;;;;1999.90;999.90;;;14.90;99.90;;;;;;5020149;28;20199;-68
2021/08/24 04:12:31;;;;;;;1999.90;999.90;;;14.80;99.90;;;;;;5016836;28;20442;-68
2021/08/24 04:14:57;;;;;;;1999.90;999.90;;;14.80;99.90;;;;;;5015618;28;20497;-68
2021/08/24 04:17:22;;;;;;;1999.90;999.90;;;14.70;99.90;;;;;;5022330;28;20283;-68
2021/08/24 04:19:48;;;;;;;1999.90;999.90;;;14.60;99.90;;;;;;5018991;28;20691;-68
2021/08/24 04:22:19;;;;;;;1999.90;999.90;;;14.60;99.90;;;;;;5017688;28;20260;-68
2021/08/24 04:24:44;;;;;;;1999.90;999.90;;;14.50;99.90;;;;;;5015330;28;20837;-68
2021/08/24 04:27:10;;;;;;;1999.90;999.90;;;14.50;99.90;;;;;;5021194;28;20456;-67
2021/08/24 04:29:36;;;;;;;1999.90;999.90;;;14.50;99.90;;;;;;5020449;28;20183;-68
2021/08/24 04:32:04;;;;;;;1999.90;999.90;;;14.40;99.90;;;;;;5017657;28;20190;-68
2021/08/24 04:34:30;;;;;;;1999.90;999.90;;;14.30;99.90;;;;;;5015200;28;20972;-68
2021/08/24 04:36:56;;;;;;;1999.90;999.90;;;14.30;99.90;;;;;;5012539;28;20448;-68
2021/08/24 04:39:21;;;;;;;1999.90;999.90;;;14.30;99.90;;;;;;5014069;28;20184;-68
2021/08/24 04:41:47;;;;;;;1999.90;999.90;;;14.20;99.90;;;;;;5014029;28;20178;-67
2021/08/24 04:44:12;;;;;;;1999.90;999.90;;;14.20;99.90;;;;;;5013827;28;20175;-70
2021/08/24 04:46:38;;;;;;;1999.90;999.90;;;14.20;99.90;;;;;;5016652;28;20241;-69
2021/08/24 04:49:04;;;;;;;1999.90;999.90;;;14.10;99.90;;;;;;5018850;28;20181;-70
2021/08/24 04:51:29;;;;;;;1999.90;999.90;;;14.10;99.90;;;;;;5017065;28;20219;-70
2021/08/24 04:53:55;;;;;;;1999.90;999.90;;;14.10;99.90;;;;;;5013939;28;20743;-70
2021/08/24 04:56:20;;;;;;;1999.90;999.90;;;14.10;99.90;;;;;;5013066;28;20681;-70
2021/08/24 04:58:46;;;;;;;1999.90;999.90;;;14.10;99.90;;;;;;5026943;28;20177;-70
2021/08/24 05:01:11;;;;;;;1999.90;999.90;;;14.10;99.90;;;;;;5017295;28;20256;-71
2021/08/24 05:03:37;;;;;;;1999.90;999.90;;;14.00;99.90;;;;;;5013759;28;20185;-70
2021/08/24 05:06:02;;;;;;;1999.90;999.90;;;14.10;99.90;;;;;;5015318;28;20211;-70
2021/08/24 05:08:28;;;;;;;1999.90;999.90;;;14.10;99.90;;;;;;5024841;28;20181;-70
2021/08/24 05:10:54;;;;;;;1999.90;999.90;;;14.10;99.90;;;;;;5016805;28;20246;-70
2021/08/24 05:13:19;;;;;;;1999.90;999.90;;;14.10;99.90;;;;;;5013478;28;20203;-70
2021/08/24 05:15:45;;;;;;;1999.90;999.90;;;14.10;99.90;;;;;;5012882;28;20206;-70
2021/08/24 05:18:11;;;;;;;1999.90;999.90;;;14.10;99.90;;;;;;5024539;28;20195;-70
2021/08/24 05:20:36;;;;;;;1999.90;999.90;;;14.10;99.90;;;;;;5018127;28;20186;-70
2021/08/24 05:23:02;;;;;;;1999.90;999.90;;;14.10;99.90;;;;;;5013563;28;20176;-70
2021/08/24 05:25:29;;;;;;;1999.90;999.90;;;14.10;99.90;;;;;;5014218;28;20238;-70
2021/08/24 05:27:55;;;;;;;1999.90;999.90;;;14.20;99.90;;;;;;5022398;28;20236;-70
2021/08/24 05:30:24;;;;;;;1999.90;999.90;;;14.20;99.90;;;;;;5019887;28;20451;-70
2021/08/24 05:32:51;;;;;;;1999.90;999.90;;;14.20;99.90;;;;;;5005293;28;20412;-70
2021/08/24 05:35:17;;;;;;;1999.90;999.90;;;14.20;99.90;;;;;;5014018;28;20464;-68
2021/08/24 05:37:42;;;;;;;1999.90;999.90;;;14.30;99.90;;;;;;5020143;28;20478;-68
2021/08/24 05:40:09;;;;;;;1999.90;999.90;;;14.30;99.90;;;;;;5018808;28;20416;-68
2021/08/24 05:42:35;;;;;;;1999.90;999.90;;;14.30;99.90;;;;;;5014736;28;20408;-68
2021/08/24 05:45:02;;;;;;;1999.90;999.90;;;14.30;99.90;;;;;;5013823;28;20420;-68
2021/08/24 05:47:28;;;;;;;1999.90;999.90;;;14.40;99.90;;;;;;5020544;28;20216;-68
2021/08/24 05:49:54;;;;;;;1999.90;999.90;;;14.40;99.90;;;;;;5018758;28;20423;-69
2021/08/24 05:52:20;;;;;;;1999.90;999.90;;;14.50;99.90;;;;;;5022176;28;20418;-69
2021/08/24 05:54:47;;;;;;;1999.90;999.90;;;14.50;99.90;;;;;;5019352;28;20659;-69
2021/08/24 05:57:16;;;;;;;1999.90;999.90;;;14.40;99.90;;;;;;5025569;28;20199;-69
2021/08/24 05:59:42;;;;;;;1999.90;999.90;;;14.40;99.90;;;;;;5024164;28;20423;-68
2021/08/24 06:02:07;;;;;;;1999.90;999.90;;;14.30;99.90;;;;;;5022331;28;20504;-68
2021/08/24 06:04:34;;;;;;;1999.90;999.90;;;14.20;99.90;;;;;;5019678;28;20184;-68
2021/08/24 06:07:00;;;;;;;1999.90;999.90;;;14.20;99.90;;;;;;5018699;28;20204;-69
2021/08/24 06:09:26;;;;;;;1999.90;999.90;;;14.20;99.90;;;;;;5019921;28;20909;-69
2021/08/24 06:11:52;;;;;;;1999.90;999.90;;;14.10;99.90;;;;;;5015579;28;20515;-69
2021/08/24 06:14:19;;;;;;;1999.90;999.90;;;14.20;99.90;;;;;;5012682;28;20212;-69
2021/08/24 06:16:45;;;;;;;1999.90;999.90;;;14.20;99.90;;;;;;5015967;28;21024;-69
2021/08/24 06:19:11;;;;;;;1999.90;999.90;;;14.30;99.90;;;;;;5012075;28;20417;-69
2021/08/24 06:21:38;;;;;;;1999.90;999.90;;;14.40;99.90;;;;;;5015835;28;20659;-69
2021/08/24 06:24:05;;;;;;;1999.90;999.90;;;14.60;99.90;;;;;;5015763;28;20807;-68
2021/08/24 06:26:31;;;;;;;1999.90;999.90;;;14.70;99.90;;;;;;5018819;28;20491;-69
2021/08/24 06:28:56;;;;;;;1999.90;999.90;;;14.70;99.90;;;;;;5019921;28;20897;-69
2021/08/24 06:31:28;;;;;;;1999.90;999.90;;;14.80;99.90;;;;;;5021029;28;20406;-68
2021/08/24 06:33:54;;;;;;;1999.90;999.90;;;14.90;99.90;;;;;;5013558;28;20755;-70
2021/08/24 06:36:21;;;;;;;1999.90;999.90;;;15.00;99.90;;;;;;5022599;28;20872;-68
2021/08/24 06:38:47;;;;;;;1999.90;999.90;;;15.00;99.90;;;;;;5027929;28;20416;-69
2021/08/24 06:41:14;;;;;;;1999.90;999.90;;;15.10;99.90;;;;;;5022997;28;20615;-69
2021/08/24 06:43:40;;;;;;;1999.90;999.90;;;15.20;99.90;;;;;;5018900;28;20408;-68
2021/08/24 06:46:06;;;;;;;1999.90;999.90;;;15.30;99.90;;;;;;5019553;28;20495;-67
2021/08/24 06:48:32;;;;;;;1999.90;999.90;;;15.40;99.90;;;;;;5028888;28;20183;-69
2021/08/24 06:50:57;;;;;;;1999.90;999.90;;;15.40;99.90;;;;;;5019831;28;20626;-69
2021/08/24 06:53:23;;;;;;;1999.90;999.90;;;15.50;99.90;;;;;;5016165;28;20462;-69
2021/08/24 06:55:49;;;;;;;1999.90;999.90;;;15.60;99.90;;;;;;5017005;28;20216;-69
2021/08/24 06:58:16;;;;;;;1999.90;999.90;;;15.70;99.90;;;;;;5028148;28;20330;-69
2021/08/24 07:00:44;;;;;;;1999.90;999.90;;;15.80;99.90;;;;;;5020747;28;20917;-69
2021/08/24 07:03:11;;;;;;;1999.90;999.90;;;15.90;99.90;;;;;;5016517;28;20505;-69
2021/08/24 07:05:41;;;;;;;1999.90;999.90;;;16.10;99.90;;;;;;5016231;28;20405;-69
2021/08/24 07:08:07;;;;;;;1999.90;999.90;;;16.20;99.90;;;;;;5026378;28;20917;-69
2021/08/24 07:10:33;;;;;;;1999.90;999.90;;;16.30;99.90;;;;;;5020935;28;20799;-68
2021/08/24 07:12:59;;;;;;;1999.90;999.90;;;16.40;99.90;;;;;;5011883;28;20399;-68
2021/08/24 07:15:25;;;;;;;1999.90;999.90;;;16.50;99.90;;;;;;5012561;28;20346;-68
2021/08/24 07:17:56;;;;;;;1999.90;999.90;;;16.60;99.90;;;;;;5010434;28;20248;-68
2021/08/24 07:20:23;;;;;;;1999.90;999.90;;;16.60;99.90;;;;;;5011831;28;20441;-69
2021/08/24 07:22:49;;;;;;;1999.90;999.90;;;16.70;99.90;;;;;;5003634;28;20397;-69
2021/08/24 07:25:18;;;;;;;1999.90;999.90;;;16.80;99.90;;;;;;5011370;28;20828;-69
2021/08/24 07:27:44;;;;;;;1999.90;999.90;;;16.90;99.90;;;;;;5019934;28;20451;-69
2021/08/24 07:30:10;;;;;;;1999.90;999.90;;;17.00;99.90;;;;;;5017448;28;20781;-69
2021/08/24 07:32:36;;;;;;;1999.90;999.90;;;17.00;99.90;;;;;;5013292;28;20185;-69
2021/08/24 07:35:03;;;;;;;1999.90;999.90;;;17.10;99.90;;;;;;5012359;28;20463;-69
2021/08/24 07:37:29;;;;;;;1999.90;999.90;;;17.10;99.90;;;;;;5019091;28;20196;-69
2021/08/24 07:39:54;;;;;;;1999.90;999.90;;;17.20;99.90;;;;;;5017819;28;20417;-69
2021/08/24 07:42:20;;;;;;;1999.90;999.90;;;17.30;99.90;;;;;;5018316;28;20178;-69
2021/08/24 07:44:45;;;;;;;1999.90;999.90;;;17.30;99.90;;;;;;5015865;28;20267;-69
2021/08/24 07:47:11;;;;;;;1999.90;999.90;;;17.40;99.90;;;;;;5021525;28;20213;-69
2021/08/24 07:49:38;;;;;;;1999.90;999.90;;;17.40;99.90;;;;;;5020853;28;20263;-69
2021/08/24 07:52:09;;;;;;;1999.90;999.90;;;17.40;99.90;;;;;;5018220;28;20173;-69
2021/08/24 07:54:35;;;;;;;1999.90;999.90;;;17.50;99.90;;;;;;5015571;28;20508;-69
2021/08/24 07:57:01;;;;;;;1999.90;999.90;;;17.60;99.90;;;;;;5019360;28;20458;-69
2021/08/24 07:59:26;;;;;;;1999.90;999.90;;;17.60;99.90;;;;;;5022023;28;20413;-69
2021/08/24 08:01:54;;;;;;;1999.90;999.90;;;17.70;99.90;;;;;;5018189;28;20178;-68
2021/08/24 08:04:21;;;;;;;1999.90;999.90;;;17.80;99.90;;;;;;5014978;28;20184;-68
2021/08/24 08:06:46;;;;;;;1999.90;999.90;;;18.00;99.90;;;;;;5013335;28;20473;-70
2021/08/24 08:09:13;;;;;;;1999.90;999.90;;;18.20;99.90;;;;;;5014664;28;20454;-68
2021/08/24 08:11:39;;;;;;;1999.90;999.90;;;18.30;99.90;;;;;;5014707;28;20178;-69
2021/08/24 08:14:05;;;;;;;1999.90;999.90;;;18.40;99.90;;;;;;5014412;28;20532;-68
2021/08/24 08:16:32;;;;;;;1999.90;999.90;;;18.50;99.90;;;;;;5017746;28;20490;-68
2021/08/24 08:18:57;;;;;;;1999.90;999.90;;;18.60;99.90;;;;;;5023809;28;20409;-68
2021/08/24 08:21:23;;;;;;;1999.90;999.90;;;18.70;99.90;;;;;;5017730;28;20424;-69
2021/08/24 08:23:49;;;;;;;1999.90;999.90;;;18.80;99.90;;;;;;5014300;28;20204;-68
2021/08/24 08:26:15;;;;;;;1999.90;999.90;;;18.80;99.90;;;;;;5017441;28;20206;-70
2021/08/24 08:28:40;;;;;;;1999.90;999.90;;;19.00;99.90;;;;;;5024757;28;20210;-69
2021/08/24 08:31:10;;;;;;;1999.90;999.90;;;19.00;99.90;;;;;;5017880;28;20430;-68
2021/08/24 08:33:35;;;;;;;1999.90;999.90;;;19.10;99.90;;;;;;5014211;28;20289;-68
2021/08/24 08:36:01;;;;;;;1999.90;999.90;;;19.20;99.90;;;;;;5015474;28;21023;-68
2021/08/24 08:38:27;;;;;;;1999.90;999.90;;;19.20;99.90;;;;;;5025249;28;20188;-69
2021/08/24 08:41:14;;;;;;;1999.90;999.90;;;19.30;99.90;;;;;;5017222;28;20653;-68
2021/08/24 08:43:59;;;;;;;1999.90;999.90;;;19.40;99.90;;;;;;5014348;28;20422;-69
2021/08/24 08:46:46;;;;;;;1999.90;999.90;;;19.40;99.90;;;;;;5019982;28;20571;-69
2021/08/24 08:49:30;;;;;;;1999.90;999.90;;;19.50;99.90;;;;;;5015393;28;20769;-69
2021/08/24 08:52:16;;;;;;;1999.90;999.90;;;19.60;99.90;;;;;;5013410;28;20444;-69
2021/08/24 08:55:08;;;;;;;1999.90;999.90;;;19.70;99.90;;;;;;5014371;28;20477;-69
2021/08/24 08:57:54;;;;;;;1999.90;999.90;;;19.70;99.90;;;;;;5021266;28;20428;-69
2021/08/24 09:00:26;;;;;;;1999.90;999.90;;;19.80;99.90;;;;;;5012694;28;20419;-69
2021/08/24 09:03:04;;;;;;;1999.90;999.90;;;19.90;99.90;;;;;;5005885;28;20825;-70
2021/08/24 09:05:30;;;;;;;1999.90;999.90;;;19.90;99.90;;;;;;5013616;28;20909;-69
2021/08/24 09:07:57;;;;;;;1999.90;999.90;;;20.00;99.90;;;;;;5016422;28;20954;-69
2021/08/24 09:10:38;;;;;;;1999.90;999.90;;;20.00;99.90;;;;;;5018850;28;20416;-70
2021/08/24 09:13:16;;;;;;;1999.90;999.90;;;20.00;99.90;;;;;;5012133;28;20403;-70
2021/08/24 09:15:56;;;;;;;1999.90;999.90;;;20.10;99.90;;;;;;5012118;28;20891;-70
2021/08/24 09:19:00;;;;;;;1999.90;999.90;;;20.20;99.90;;;;;;5023091;28;20496;-69
2021/08/24 09:21:27;;;;;;;1999.90;999.90;;;20.20;99.90;;;;;;5011774;28;20466;-70
2021/08/24 09:23:54;;;;;;;1999.90;999.90;;;20.30;99.90;;;;;;5011680;28;20421;-70
2021/08/24 09:26:32;;;;;;;1999.90;999.90;;;20.40;99.90;;;;;;5015017;28;20539;-70
2021/08/24 09:28:58;;;;;;;1999.90;999.90;;;20.50;99.90;;;;;;5018930;28;20498;-70
2021/08/24 09:31:24;;;;;;;1999.90;999.90;;;20.60;99.90;;;;;;5015082;28;20503;-70
2021/08/24 09:33:51;;;;;;;1999.90;999.90;;;20.60;99.90;;;;;;5011479;28;20287;-70
2021/08/24 09:36:18;;;;;;;1999.90;999.90;;;20.70;99.90;;;;;;5013792;28;21025;-70
2021/08/24 09:38:57;;;;;;;1999.90;999.90;;;20.80;99.90;;;;;;5021003;28;21008;-70
2021/08/24 09:41:26;;;;;;;1999.90;999.90;;;20.90;99.90;;;;;;5014724;28;20386;-70
2021/08/24 09:43:56;;;;;;;1999.90;999.90;;;20.90;99.90;;;;;;5010967;28;20502;-70
2021/08/24 09:46:21;;;;;;;1999.90;999.90;;;20.90;99.90;;;;;;5014692;28;20808;-70
2021/08/24 09:49:01;;;;;;;1999.90;999.90;;;21.00;99.90;;;;;;5020425;28;20427;-70
2021/08/24 09:51:32;;;;;;;1999.90;999.90;;;21.10;99.90;;;;;;5014396;28;20189;-71
2021/08/24 09:53:59;;;;;;;1999.90;999.90;;;21.20;99.90;;;;;;5011318;28;20484;-71
2021/08/24 09:56:31;;;;;;;1999.90;999.90;;;21.20;99.90;;;;;;5015332;28;20466;-71
2021/08/24 09:58:57;;;;;;;1999.90;999.90;;;21.30;99.90;;;;;;5020377;28;20466;-70
2021/08/24 10:01:23;;;;;;;1999.90;999.90;;;21.20;99.90;;;;;;5014518;28;20439;-70
2021/08/24 10:04:09;;;;;;;1999.90;999.90;;;21.30;99.90;;;;;;5011042;28;20411;-70
2021/08/24 10:06:39;;;;;;;1999.90;999.90;;;21.30;99.90;;;;;;5014620;28;20322;-70
2021/08/24 10:09:34;;;;;;;1999.90;999.90;;;21.30;99.90;;;;;;5020412;28;20463;-69
2021/08/24 10:12:28;;;;;;;1999.90;999.90;;;21.40;99.90;;;;;;5011611;28;20412;-69
2021/08/24 10:14:56;;;;;;;1999.90;999.90;;;21.40;99.90;;;;;;4997854;28;20460;-69
2021/08/24 10:17:43;;;;;;;1999.90;999.90;;;21.60;99.90;;;;;;5018143;28;20539;-69
2021/08/24 10:20:30;;;;;;;1999.90;999.90;;;21.70;99.90;;;;;;5015000;28;20393;-69
2021/08/24 10:22:56;;;;;;;1999.90;999.90;;;21.90;99.90;;;;;;5003963;28;20486;-69
2021/08/24 10:25:39;;;;;;;1999.90;999.90;;;22.00;99.90;;;;;;5011461;28;20420;-69
2021/08/24 10:28:11;;;;;;;1999.90;999.90;;;22.20;99.90;;;;;;5019545;28;20425;-69
2021/08/24 10:30:43;;;;;;;1999.90;999.90;;;22.30;99.90;;;;;;5015274;28;20419;-69
2021/08/24 10:33:30;;;;;;;1999.90;999.90;;;22.40;99.90;;;;;;5010594;28;20411;-70
2021/08/24 10:36:37;;;;;;;1999.90;999.90;;;22.50;99.90;;;;;;5011325;28;21092;-69
2021/08/24 10:39:21;;;;;;;1999.90;999.90;;;22.60;99.90;;;;;;5017574;28;20437;-69
2021/08/24 10:41:59;;;;;;;1999.90;999.90;;;22.60;99.90;;;;;;5013781;28;20422;-69
2021/08/24 10:44:27;;;;;;;1999.90;999.90;;;22.70;99.90;;;;;;5010954;28;20427;-69
2021/08/24 10:46:54;;;;;;;1999.90;999.90;;;22.80;99.90;;;;;;5013391;28;20519;-69
2021/08/24 10:49:20;;;;;;;1999.90;999.90;;;22.90;99.90;;;;;;5018568;28;20400;-69
2021/08/24 10:52:07;;;;;;;1999.90;999.90;;;23.00;99.90;;;;;;5013054;28;20472;-69
2021/08/24 10:54:53;;;;;;;1999.90;999.90;;;23.10;99.90;;;;;;5011155;28;20544;-69
2021/08/24 10:57:34;;;;;;;1999.90;999.90;;;23.10;99.90;;;;;;5016517;28;20424;-69
2021/08/24 11:00:20;;;;;;;1999.90;999.90;;;23.20;99.90;;;;;;5012711;28;20793;-69
2021/08/24 11:03:40;;;;;;;1999.90;999.90;;;23.40;99.90;;;;;;5010291;28;20736;-69
2021/08/24 11:06:31;;;;;;;1999.90;999.90;;;23.50;99.90;;;;;;4963925;28;20434;-69
2021/08/24 11:09:16;;;;;;;1999.90;999.90;;;23.60;99.90;;;;;;5015681;28;20397;-69
2021/08/24 11:12:11;;;;;;;1999.90;999.90;;;23.60;99.90;;;;;;5012802;28;20382;-69
2021/08/24 11:14:46;;;;;;;1999.90;999.90;;;23.70;99.90;;;;;;5001833;28;20443;-69
2021/08/24 11:17:19;;;;;;;1999.90;999.90;;;23.80;99.90;;;;;;5020089;28;20483;-69
2021/08/24 11:19:57;;;;;;;1999.90;999.90;;;24.00;99.90;;;;;;5018458;28;20439;-69
2021/08/24 11:22:36;;;;;;;1999.90;999.90;;;24.10;99.90;;;;;;5016770;28;20502;-69
2021/08/24 11:25:45;;;;;;;1999.90;999.90;;;24.30;99.90;;;;;;5001929;28;20415;-69
2021/08/24 11:28:25;;;;;;;1999.90;999.90;;;24.50;99.90;;;;;;5023899;28;20426;-69
2021/08/24 11:31:10;;;;;;;1999.90;999.90;;;24.70;99.90;;;;;;5009383;28;20419;-69
2021/08/24 11:33:40;;;;;;;1999.90;999.90;;;24.90;99.90;;;;;;5014209;28;20523;-69
2021/08/24 11:36:14;;;;;;;1999.90;999.90;;;24.80;99.90;;;;;;5015211;28;20915;-69
2021/08/24 11:38:44;;;;;;;1999.90;999.90;;;24.80;98.60;;;;;;5023723;28;20385;-69
2021/08/24 11:41:20;;;;;;;1999.90;999.90;;;24.80;99.40;;;;;;5016920;28;20400;-69
2021/08/24 11:44:04;;;;;;;1999.90;999.90;;;24.80;96.20;;;;;;5012443;28;20927;-70
2021/08/24 11:46:54;;;;;;;1999.90;999.90;;;24.80;97.40;;;;;;5017928;28;20866;-70
2021/08/24 11:49:34;;;;;;;1999.90;999.90;;;24.90;96.30;;;;;;5013842;28;20402;-70
2021/08/24 11:52:25;;;;;;;1999.90;999.90;;;24.80;95.20;;;;;;5014010;28;20421;-70
2021/08/24 11:55:06;;;;;;;1999.90;999.90;;;25.00;96.00;;;;;;4999967;28;20448;-69
2021/08/24 11:57:41;;;;;;;1999.90;999.90;;;25.50;93.70;;;;;;5021378;28;20513;-69
2021/08/24 12:00:10;;;;;;;1999.90;999.90;;;26.00;89.90;;;;;;5018994;28;20419;-70
2021/08/24 12:02:43;;;;;;;1999.90;999.90;;;26.60;85.20;;;;;;5015370;28;20474;-70
2021/08/24 12:05:29;;;;;;;1999.90;999.90;;;27.30;88.00;;;;;;5013938;28;20378;-70
2021/08/24 12:08:05;;;;;;;1999.90;999.90;;;28.40;89.40;;;;;;5011980;28;20455;-70
2021/08/24 12:11:01;;;;;;;1999.90;999.90;;;29.40;79.00;;;;;;5013628;28;20438;-70
2021/08/24 12:13:36;;;;;;;1999.90;999.90;;;30.00;70.10;;;;;;5008209;28;20423;-70
2021/08/24 12:16:16;;;;;;;1999.90;999.90;;;30.60;57.80;;;;;;5013650;28;20459;-70
2021/08/24 12:18:42;;;;;;;1999.90;999.90;;;30.80;58.30;;;;;;5022254;28;20403;-70
2021/08/24 12:21:39;;;;;;;1999.90;999.90;;;30.90;55.30;;;;;;5016278;28;20408;-70